createdAt,value
2022-10-08T00:00:54.184Z,43.92
2022-10-08T00:03:22.047Z,43.98
2022-10-08T00:05:49.856Z,44.23
2022-10-08T00:08:17.638Z,43.85
2022-10-08T00:10:45.505Z,43.84
2022-10-08T00:13:13.379Z,43.88
2022-10-08T00:15:41.793Z,44.07
2022-10-08T00:18:09.772Z,44.07
2022-10-08T00:20:37.605Z,43.58
2022-10-08T00:23:05.406Z,44.19
2022-10-08T00:25:33.200Z,44.42
2022-10-08T00:28:01.048Z,43.85
2022-10-08T00:30:28.839Z,44.30
2022-10-08T00:32:59.828Z,44.15
2022-10-08T00:35:27.868Z,44.26
2022-10-08T00:37:55.657Z,43.95
2022-10-08T00:59:17.207Z,44.38
2022-10-08T01:01:44.996Z,43.98
2022-10-08T01:04:12.935Z,44.01
2022-10-08T01:06:40.722Z,44.21
2022-10-08T01:09:14.089Z,44.35
2022-10-08T01:11:44.791Z,44.44
2022-10-08T01:14:12.539Z,44.18
2022-10-08T01:16:40.289Z,44.16
2022-10-08T01:19:08.169Z,44.34
2022-10-08T01:21:37.251Z,44.37
2022-10-08T01:24:05.223Z,44.08
2022-10-08T01:26:32.907Z,44.05
2022-10-08T01:29:03.057Z,44.32
2022-10-08T01:31:31.140Z,44.26
2022-10-08T01:33:59.386Z,44.14
2022-10-08T01:36:27.044Z,43.74
2022-10-08T01:38:54.742Z,44.42
2022-10-08T01:41:22.416Z,44.18
2022-10-08T01:43:50.091Z,44.23
2022-10-08T01:46:18.053Z,44.25
2022-10-08T01:48:45.822Z,44.35
2022-10-08T01:51:13.928Z,44.42
2022-10-08T01:53:41.780Z,44.05
2022-10-08T01:56:09.464Z,44.04
2022-10-08T01:58:37.269Z,43.79
2022-10-08T02:01:05.014Z,44.29
2022-10-08T02:03:32.773Z,44.01
2022-10-08T02:06:00.627Z,44.22
2022-10-08T02:08:28.328Z,44.47
2022-10-08T02:10:56.024Z,44.24
2022-10-08T02:13:23.729Z,44.00
2022-10-08T02:15:51.589Z,44.15
2022-10-08T02:18:19.397Z,44.07
2022-10-08T02:20:47.115Z,44.06
2022-10-08T02:23:15.093Z,44.54
2022-10-08T02:25:42.775Z,44.51
2022-10-08T02:28:10.682Z,44.10
2022-10-08T02:30:38.469Z,44.24
2022-10-08T02:33:06.204Z,44.52
2022-10-08T02:35:33.872Z,44.51
2022-10-08T02:38:01.533Z,44.34
2022-10-08T02:40:29.204Z,44.02
2022-10-08T02:42:57.165Z,44.00
2022-10-08T02:45:24.846Z,44.11
2022-10-08T02:47:52.746Z,44.20
2022-10-08T02:50:20.460Z,44.05
2022-10-08T02:52:48.442Z,44.59
2022-10-08T02:55:19.356Z,44.02
2022-10-08T02:57:47.042Z,44.31
2022-10-08T03:00:14.728Z,44.44
2022-10-08T03:02:42.487Z,44.00
2022-10-08T03:05:10.306Z,44.03
2022-10-08T03:07:38.050Z,44.12
2022-10-08T03:10:06.624Z,44.40
2022-10-08T03:12:34.301Z,44.27
2022-10-08T03:15:02.392Z,43.96
2022-10-08T03:17:30.700Z,44.41
2022-10-08T03:19:58.425Z,44.32
2022-10-08T03:22:26.105Z,44.29
2022-10-08T03:24:56.726Z,44.10
2022-10-08T03:27:24.656Z,44.25
2022-10-08T03:29:57.055Z,44.28
2022-10-08T03:32:24.761Z,44.26
2022-10-08T03:34:52.562Z,44.37
2022-10-08T03:37:20.253Z,43.79
2022-10-08T03:39:47.971Z,44.16
2022-10-08T03:42:15.669Z,44.49
2022-10-08T03:44:43.363Z,44.45
2022-10-08T03:47:11.069Z,44.06
2022-10-08T03:49:38.852Z,44.14
2022-10-08T03:52:06.638Z,44.34
2022-10-08T03:54:34.291Z,43.93
2022-10-08T03:57:02.006Z,44.03
2022-10-08T03:59:29.733Z,44.11
2022-10-08T04:01:57.391Z,44.32
2022-10-08T04:04:25.943Z,43.89
2022-10-08T04:06:53.828Z,44.17
2022-10-08T04:09:21.513Z,44.42
2022-10-08T04:11:49.215Z,44.49
2022-10-08T04:14:16.899Z,44.04
2022-10-08T04:16:44.801Z,43.97
2022-10-08T04:19:12.617Z,44.37
2022-10-08T04:21:40.335Z,44.41
2022-10-08T04:24:08.018Z,44.14
2022-10-08T04:26:35.735Z,44.63
2022-10-08T04:29:03.576Z,44.40
2022-10-08T04:31:33.510Z,44.14
2022-10-08T04:34:01.451Z,44.54
2022-10-08T04:36:29.142Z,44.71
2022-10-08T04:38:56.920Z,44.53
2022-10-08T04:41:24.807Z,44.57
2022-10-08T04:43:52.506Z,44.64
2022-10-08T04:46:20.246Z,44.29
2022-10-08T04:48:48.012Z,40.09
2022-10-08T04:51:15.658Z,33.59
2022-10-08T04:53:43.328Z,27.75
2022-10-08T04:56:11.057Z,23.84
2022-10-08T04:58:38.742Z,21.21
2022-10-08T05:01:06.466Z,20.09
2022-10-08T05:03:34.152Z,20.02
2022-10-08T05:06:01.864Z,19.73
2022-10-08T05:08:29.559Z,20.48
2022-10-08T05:10:57.333Z,20.92
2022-10-08T05:13:25.040Z,22.28
2022-10-08T05:15:52.815Z,22.98
2022-10-08T05:18:20.548Z,23.69
2022-10-08T05:20:48.233Z,24.34
2022-10-08T05:23:15.916Z,25.29
2022-10-08T05:25:43.881Z,26.30
2022-10-08T05:28:11.650Z,26.89
2022-10-08T05:30:39.397Z,28.09
2022-10-08T05:33:07.103Z,28.66
2022-10-08T05:35:34.919Z,29.27
2022-10-08T05:38:02.649Z,30.03
2022-10-08T05:40:30.841Z,30.87
2022-10-08T05:42:58.529Z,31.68
2022-10-08T05:45:26.250Z,32.51
2022-10-08T05:47:54.088Z,33.05
2022-10-08T05:50:22.171Z,33.51
2022-10-08T05:52:50.175Z,34.17
2022-10-08T05:55:18.117Z,34.73
2022-10-08T05:57:45.803Z,34.93
2022-10-08T06:00:13.507Z,35.60
2022-10-08T06:02:41.288Z,35.68
2022-10-08T06:05:09.180Z,36.23
2022-10-08T06:07:36.922Z,36.54
2022-10-08T06:10:04.612Z,37.22
2022-10-08T06:12:32.307Z,37.29
2022-10-08T06:15:00.003Z,37.95
2022-10-08T06:17:27.704Z,38.09
2022-10-08T06:19:55.417Z,38.16
2022-10-08T06:22:23.147Z,38.23
2022-10-08T06:24:50.817Z,38.78
2022-10-08T06:27:18.522Z,38.15
2022-10-08T06:29:46.242Z,38.00
2022-10-08T06:32:13.926Z,38.30
2022-10-08T06:34:42.242Z,37.90
2022-10-08T06:37:10.410Z,38.03
2022-10-08T06:39:38.171Z,38.48
2022-10-08T06:42:05.893Z,38.69
2022-10-08T06:44:33.594Z,38.60
2022-10-08T06:47:01.349Z,38.39
2022-10-08T06:49:29.058Z,39.01
2022-10-08T06:51:56.796Z,39.15
2022-10-08T06:54:26.257Z,39.13
2022-10-08T06:56:55.777Z,39.04
2022-10-08T06:59:23.469Z,39.51
2022-10-08T07:01:51.145Z,39.74
2022-10-08T07:04:18.882Z,39.46
2022-10-08T07:06:46.589Z,39.66
2022-10-08T07:09:14.284Z,40.26
2022-10-08T07:11:41.994Z,39.93
2022-10-08T07:14:09.685Z,40.14
2022-10-08T07:16:37.436Z,40.51
2022-10-08T07:19:05.175Z,40.80
2022-10-08T07:21:32.852Z,40.28
2022-10-08T07:24:00.767Z,41.01
2022-10-08T07:26:28.448Z,41.03
2022-10-08T07:28:56.297Z,40.73
2022-10-08T07:31:24.182Z,40.88
2022-10-08T07:33:51.950Z,40.74
2022-10-08T07:36:21.256Z,40.82
2022-10-08T07:38:49.113Z,40.96
2022-10-08T07:41:16.835Z,41.42
2022-10-08T07:43:44.546Z,41.33
2022-10-08T07:46:12.458Z,41.45
2022-10-08T07:48:40.271Z,41.55
2022-10-08T07:51:07.951Z,42.08
2022-10-08T07:53:35.649Z,42.23
2022-10-08T07:56:03.542Z,42.37
2022-10-08T07:58:31.326Z,42.08
2022-10-08T08:00:59.088Z,41.90
2022-10-08T08:03:26.812Z,42.24
2022-10-08T08:05:54.539Z,42.26
2022-10-08T08:08:23.496Z,42.06
2022-10-08T08:10:51.467Z,42.26
2022-10-08T08:13:19.187Z,42.26
2022-10-08T08:15:46.869Z,42.52
2022-10-08T08:18:14.836Z,42.46
2022-10-08T08:20:42.938Z,42.38
2022-10-08T08:23:10.622Z,42.31
2022-10-08T08:25:38.290Z,42.68
2022-10-08T08:28:06.126Z,42.69
2022-10-08T08:30:33.859Z,42.50
2022-10-08T08:33:01.645Z,42.49
2022-10-08T08:35:29.396Z,42.57
2022-10-08T08:37:57.099Z,42.47
2022-10-08T08:40:24.918Z,42.53
2022-10-08T08:42:52.603Z,42.75
2022-10-08T08:45:44.683Z,42.64
2022-10-08T08:48:08.039Z,42.73
2022-10-08T08:50:35.791Z,42.61
2022-10-08T08:53:03.611Z,42.99
2022-10-08T08:55:31.428Z,42.78
2022-10-08T08:57:59.156Z,42.70
2022-10-08T09:00:27.327Z,42.85
2022-10-08T09:02:55.107Z,42.90
2022-10-08T09:05:22.985Z,43.10
2022-10-08T09:07:51.321Z,42.81
2022-10-08T09:10:18.963Z,43.04
2022-10-08T09:12:47.039Z,43.68
2022-10-08T09:15:14.993Z,44.16
2022-10-08T09:17:42.725Z,44.22
2022-10-08T09:20:10.609Z,44.28
2022-10-08T09:22:38.336Z,44.76
2022-10-08T09:25:06.026Z,45.67
2022-10-08T09:27:33.782Z,45.22
2022-10-08T09:30:01.416Z,45.80
2022-10-08T09:32:29.082Z,45.67
2022-10-08T09:34:56.773Z,45.75
2022-10-08T09:37:24.432Z,45.25
2022-10-08T09:39:52.147Z,45.05
2022-10-08T09:42:19.876Z,45.14
2022-10-08T09:44:47.570Z,45.35
2022-10-08T09:47:15.229Z,45.30
2022-10-08T09:49:42.976Z,44.76
2022-10-08T09:52:13.535Z,45.32
2022-10-08T09:54:46.470Z,44.82
2022-10-08T09:57:14.161Z,44.92
2022-10-08T09:59:41.873Z,44.74
2022-10-08T10:02:10.197Z,44.89
2022-10-08T10:04:37.983Z,44.88
2022-10-08T10:07:05.681Z,44.49
2022-10-08T10:09:33.385Z,44.52
2022-10-08T10:12:01.186Z,44.98
2022-10-08T10:14:28.915Z,44.70
2022-10-08T10:16:56.605Z,44.63
2022-10-08T10:19:24.241Z,44.16
2022-10-08T10:21:52.678Z,44.75
2022-10-08T10:24:20.382Z,44.19
2022-10-08T10:26:48.080Z,44.70
2022-10-08T10:29:16.475Z,44.52
2022-10-08T10:31:44.472Z,44.13
2022-10-08T10:34:12.131Z,44.18
2022-10-08T10:36:39.801Z,44.53
2022-10-08T10:39:07.520Z,44.18
2022-10-08T10:41:35.230Z,44.63
2022-10-08T10:44:02.942Z,44.49
2022-10-08T10:46:30.751Z,44.26
2022-10-08T10:48:58.536Z,44.11
2022-10-08T10:51:28.356Z,44.60
2022-10-08T10:53:58.181Z,44.42
2022-10-08T10:56:25.845Z,44.19
2022-10-08T10:58:53.505Z,44.52
2022-10-08T11:01:21.695Z,44.41
2022-10-08T11:03:49.401Z,44.23
2022-10-08T11:06:17.172Z,44.45
2022-10-08T11:08:44.848Z,44.64
2022-10-08T11:11:12.513Z,44.25
2022-10-08T11:13:40.235Z,44.59
2022-10-08T11:16:07.993Z,44.63
2022-10-08T11:18:35.801Z,44.18
2022-10-08T11:21:03.463Z,44.00
2022-10-08T11:23:31.176Z,44.57
2022-10-08T11:28:46.663Z,44.53
2022-10-08T11:31:14.451Z,44.69
2022-10-08T11:33:42.152Z,44.29
2022-10-08T11:36:09.849Z,44.42
2022-10-08T11:38:37.616Z,44.45
2022-10-08T11:41:05.320Z,44.09
2022-10-08T11:43:33.083Z,44.26
2022-10-08T11:46:00.825Z,44.64
2022-10-08T11:48:28.537Z,44.52
2022-10-08T11:50:56.252Z,44.70
2022-10-08T11:53:24.032Z,44.43
2022-10-08T11:55:51.786Z,44.60
2022-10-08T11:58:21.175Z,44.67
2022-10-08T12:00:48.867Z,44.54
2022-10-08T12:03:16.732Z,44.74
2022-10-08T12:05:49.299Z,45.17
2022-10-08T12:08:18.018Z,44.81
2022-10-08T12:10:45.742Z,45.60
2022-10-08T12:13:17.576Z,45.26
2022-10-08T12:15:45.671Z,45.32
2022-10-08T12:18:13.705Z,45.43
2022-10-08T12:20:42.448Z,45.65
2022-10-08T12:23:10.112Z,45.50
2022-10-08T12:25:37.842Z,45.37
2022-10-08T12:28:05.633Z,45.86
2022-10-08T12:30:33.475Z,45.21
2022-10-08T12:33:01.163Z,45.75
2022-10-08T12:35:28.970Z,45.92
2022-10-08T12:37:56.611Z,45.51
2022-10-08T12:40:24.392Z,45.36
2022-10-08T12:42:52.074Z,45.48
2022-10-08T12:45:19.755Z,44.89
2022-10-08T12:47:47.676Z,44.21
2022-10-08T12:50:15.581Z,42.89
2022-10-08T12:52:43.274Z,41.76
2022-10-08T12:55:10.979Z,41.42
2022-10-08T12:57:38.790Z,41.13
2022-10-08T13:00:06.918Z,41.13
2022-10-08T13:02:34.575Z,41.00
2022-10-08T13:05:02.279Z,41.04
2022-10-08T13:07:30.101Z,41.68
2022-10-08T13:09:57.792Z,41.64
2022-10-08T13:12:25.495Z,41.88
2022-10-08T13:14:53.291Z,40.87
2022-10-08T13:17:21.320Z,40.02
2022-10-08T13:19:49.080Z,39.29
2022-10-08T13:22:16.778Z,39.42
2022-10-08T13:24:44.463Z,39.39
2022-10-08T13:27:12.248Z,39.08
2022-10-08T13:29:40.068Z,39.28
2022-10-08T13:32:07.842Z,39.16
2022-10-08T13:34:35.806Z,39.43
2022-10-08T13:37:03.665Z,39.83
2022-10-08T13:39:31.517Z,39.74
2022-10-08T13:41:59.513Z,39.97
2022-10-08T13:44:27.380Z,40.01
2022-10-08T13:46:57.962Z,40.56
2022-10-08T13:49:28.253Z,40.18
2022-10-08T13:51:56.180Z,41.03
2022-10-08T13:54:23.997Z,40.80
2022-10-08T13:56:51.823Z,41.09
2022-10-08T13:59:19.722Z,41.02
2022-10-08T14:01:47.581Z,41.01
2022-10-08T14:04:15.597Z,40.80
2022-10-08T14:06:43.513Z,41.09
2022-10-08T14:09:11.347Z,41.22
2022-10-08T14:11:41.395Z,41.26
2022-10-08T14:14:09.201Z,41.43
2022-10-08T14:16:37.166Z,41.19
2022-10-08T14:19:08.660Z,41.24
2022-10-08T14:21:39.262Z,41.31
2022-10-08T14:24:07.154Z,41.82
2022-10-08T14:26:34.978Z,41.88
2022-10-08T14:29:02.795Z,41.88
2022-10-08T14:31:30.656Z,42.40
2022-10-08T14:33:58.554Z,42.30
2022-10-08T14:36:26.475Z,42.14
2022-10-08T14:38:54.449Z,42.65
2022-10-08T14:41:22.342Z,42.39
2022-10-08T14:43:50.247Z,42.61
2022-10-08T14:46:18.584Z,42.96
2022-10-08T14:48:46.582Z,43.15
2022-10-08T14:51:14.507Z,43.33
2022-10-08T14:53:42.535Z,42.69
2022-10-08T14:56:12.751Z,43.38
2022-10-08T14:58:40.783Z,43.16
2022-10-08T15:01:08.591Z,43.11
2022-10-08T15:03:36.436Z,43.18
2022-10-08T15:06:04.232Z,43.30
2022-10-08T15:08:32.110Z,43.21
2022-10-08T15:11:00.218Z,42.16
2022-10-08T15:13:27.998Z,42.04
2022-10-08T15:15:55.893Z,41.63
2022-10-08T15:18:23.764Z,41.23
2022-10-08T15:20:51.572Z,40.52
2022-10-08T15:23:19.517Z,40.03
2022-10-08T15:25:47.364Z,39.80
2022-10-08T15:28:15.520Z,40.17
2022-10-08T15:30:44.500Z,39.99
2022-10-08T15:33:12.471Z,40.12
2022-10-08T15:35:40.337Z,40.13
2022-10-08T15:38:08.400Z,40.39
2022-10-08T15:40:36.377Z,40.44
2022-10-08T15:43:04.255Z,40.66
2022-10-08T15:45:38.100Z,40.66
2022-10-08T15:48:06.228Z,41.27
2022-10-08T15:50:34.099Z,41.00
2022-10-08T15:53:02.122Z,41.65
2022-10-08T15:55:30.019Z,41.38
2022-10-08T15:57:58.272Z,41.76
2022-10-08T16:00:26.142Z,41.93
2022-10-08T16:02:54.161Z,42.08
2022-10-08T16:05:22.044Z,42.57
2022-10-08T16:07:49.909Z,42.60
2022-10-08T16:10:17.916Z,42.62
2022-10-08T16:12:46.022Z,43.29
2022-10-08T16:15:14.116Z,42.82
2022-10-08T16:17:41.983Z,42.86
2022-10-08T16:20:10.032Z,42.82
2022-10-08T16:22:37.978Z,43.52
2022-10-08T16:25:05.930Z,43.03
2022-10-08T16:27:33.777Z,43.09
2022-10-08T16:30:01.847Z,43.62
2022-10-08T16:32:29.774Z,43.52
2022-10-08T16:34:57.691Z,43.49
2022-10-08T16:37:25.998Z,43.64
2022-10-08T16:39:54.012Z,43.30
2022-10-08T16:42:21.925Z,43.96
2022-10-08T16:44:49.880Z,43.92
2022-10-08T16:47:17.817Z,43.48
2022-10-08T16:49:46.738Z,43.39
2022-10-08T16:52:14.770Z,43.96
2022-10-08T16:54:42.683Z,43.76
2022-10-08T16:57:10.631Z,43.17
2022-10-08T16:59:38.971Z,41.38
2022-10-08T17:02:06.910Z,39.90
2022-10-08T17:04:39.250Z,38.15
2022-10-08T17:07:07.497Z,36.88
2022-10-08T17:09:35.540Z,35.96
2022-10-08T17:12:03.578Z,35.71
2022-10-08T17:14:33.262Z,35.48
2022-10-08T17:17:01.174Z,35.65
2022-10-08T17:19:29.201Z,35.89
2022-10-08T17:21:57.032Z,35.98
2022-10-08T17:24:24.927Z,36.29
2022-10-08T17:26:52.755Z,36.68
2022-10-08T17:29:20.768Z,36.75
2022-10-08T17:31:48.759Z,37.20
2022-10-08T17:34:16.677Z,37.41
2022-10-08T17:36:44.652Z,37.70
2022-10-08T17:39:12.731Z,37.73
2022-10-08T17:41:40.654Z,38.11
2022-10-08T17:44:08.530Z,38.67
2022-10-08T17:46:36.439Z,38.49
2022-10-08T17:49:04.930Z,38.94
2022-10-08T17:51:32.820Z,39.08
2022-10-08T17:54:00.798Z,39.39
2022-10-08T17:56:28.738Z,39.51
2022-10-08T17:58:56.663Z,39.58
2022-10-08T18:01:24.701Z,39.94
2022-10-08T18:03:52.610Z,40.31
2022-10-08T18:06:20.532Z,40.00
2022-10-08T18:08:48.455Z,40.43
2022-10-08T18:11:16.804Z,40.66
2022-10-08T18:13:44.728Z,40.63
2022-10-08T18:16:12.744Z,40.99
2022-10-08T18:18:40.874Z,41.27
2022-10-08T18:21:08.832Z,41.26
2022-10-08T18:23:36.770Z,41.70
2022-10-08T18:26:04.818Z,41.41
2022-10-08T18:28:32.805Z,41.57
2022-10-08T18:31:00.759Z,41.41
2022-10-08T18:33:28.730Z,41.50
2022-10-08T18:35:56.659Z,41.74
2022-10-08T18:38:24.566Z,42.06
2022-10-08T18:40:52.846Z,42.30
2022-10-08T18:43:20.748Z,42.25
2022-10-08T18:45:48.629Z,42.53
2022-10-08T18:48:16.529Z,42.37
2022-10-08T18:50:44.418Z,41.63
2022-10-08T18:53:12.416Z,41.63
2022-10-08T18:55:40.322Z,41.66
2022-10-08T18:58:08.165Z,41.63
2022-10-08T19:00:36.113Z,41.74
2022-10-08T19:03:04.974Z,42.22
2022-10-08T19:05:34.127Z,42.34
2022-10-08T19:08:02.092Z,42.22
2022-10-08T19:10:30.078Z,42.48
2022-10-08T19:12:57.951Z,41.98
2022-10-08T19:15:25.859Z,42.58
2022-10-08T19:17:53.755Z,42.30
2022-10-08T19:20:21.637Z,42.74
2022-10-08T19:22:49.831Z,42.71
2022-10-08T19:25:17.950Z,42.29
2022-10-08T19:27:45.960Z,42.64
2022-10-08T19:30:15.889Z,42.58
2022-10-08T19:32:43.793Z,42.68
2022-10-08T19:35:11.630Z,42.55
2022-10-08T19:37:39.471Z,42.62
2022-10-08T19:40:07.389Z,42.76
2022-10-08T19:42:35.276Z,42.89
2022-10-08T19:45:03.416Z,42.48
2022-10-08T19:47:31.340Z,42.82
2022-10-08T19:49:59.510Z,42.83
2022-10-08T19:52:27.627Z,42.29
2022-10-08T19:54:55.540Z,42.43
2022-10-08T19:57:23.422Z,42.58
2022-10-08T19:59:51.361Z,42.99
2022-10-08T20:02:19.246Z,42.68
2022-10-08T20:04:47.936Z,43.22
2022-10-08T20:07:15.830Z,43.34
2022-10-08T20:09:43.761Z,42.98
2022-10-08T20:12:11.810Z,43.12
2022-10-08T20:14:39.776Z,42.95
2022-10-08T20:17:08.064Z,43.08
2022-10-08T20:19:35.913Z,43.16
2022-10-08T20:22:05.731Z,43.18
2022-10-08T20:24:36.377Z,43.62
2022-10-08T20:27:04.315Z,43.14
2022-10-08T20:29:32.314Z,43.69
2022-10-08T20:32:00.943Z,43.58
2022-10-08T20:34:28.889Z,43.66
2022-10-08T20:36:58.148Z,43.45
2022-10-08T20:39:26.184Z,43.70
2022-10-08T20:41:53.978Z,43.38
2022-10-08T20:44:21.913Z,43.87
2022-10-08T20:46:50.194Z,43.72
2022-10-08T20:49:18.140Z,43.80
2022-10-08T20:51:45.997Z,43.47
2022-10-08T20:54:13.896Z,43.58
2022-10-08T20:56:41.834Z,43.82
2022-10-08T20:59:09.652Z,43.58
2022-10-08T21:01:37.797Z,43.76
2022-10-08T21:04:05.691Z,43.47
2022-10-08T21:06:36.714Z,43.84
2022-10-08T21:09:04.560Z,43.76
2022-10-08T21:11:32.420Z,43.85
2022-10-08T21:14:01.786Z,43.50
2022-10-08T21:16:29.816Z,43.85
2022-10-08T21:18:57.747Z,43.59
2022-10-08T21:21:25.677Z,43.70
2022-10-08T21:23:53.627Z,43.89
2022-10-08T21:26:21.639Z,43.55
2022-10-08T21:28:49.619Z,43.68
2022-10-08T21:31:17.666Z,44.15
2022-10-08T21:33:45.576Z,44.08
2022-10-08T21:36:13.685Z,43.77
2022-10-08T21:38:41.566Z,43.85
2022-10-08T21:41:17.339Z,44.13
2022-10-08T21:43:45.280Z,44.14
2022-10-08T21:46:13.497Z,44.12
2022-10-08T21:48:41.642Z,44.34
2022-10-08T21:51:09.444Z,44.01
2022-10-08T21:53:37.553Z,44.21
2022-10-08T21:56:10.295Z,43.92
2022-10-08T21:58:38.164Z,44.08
2022-10-08T22:01:06.203Z,44.03
2022-10-08T22:03:34.015Z,43.80
2022-10-08T22:06:01.864Z,43.73
2022-10-08T22:08:29.691Z,43.79
2022-10-08T22:10:57.540Z,43.84
2022-10-08T22:13:25.685Z,43.86
2022-10-08T22:15:53.619Z,44.25
2022-10-08T22:18:21.707Z,44.10
2022-10-08T22:20:49.505Z,44.07
2022-10-08T22:23:17.444Z,43.77
2022-10-08T22:25:45.499Z,43.78
2022-10-08T22:28:13.358Z,43.97
2022-10-08T22:30:41.228Z,43.83
2022-10-08T22:33:09.089Z,43.79
2022-10-08T22:35:36.912Z,43.82
2022-10-08T22:38:04.748Z,44.42
2022-10-08T22:40:32.643Z,43.89
2022-10-08T22:43:00.470Z,44.20
2022-10-08T22:45:28.467Z,43.80
2022-10-08T22:47:56.352Z,43.72
2022-10-08T22:50:24.244Z,43.94
2022-10-08T22:52:52.161Z,44.05
2022-10-08T22:55:20.943Z,44.11
2022-10-08T22:57:48.824Z,43.85
2022-10-08T23:00:16.631Z,44.08
2022-10-08T23:02:44.399Z,44.19
2022-10-08T23:05:12.418Z,43.82
2022-10-08T23:07:40.180Z,43.99
2022-10-08T23:10:08.319Z,43.78
2022-10-08T23:12:36.071Z,44.21
2022-10-08T23:15:03.866Z,43.99
2022-10-08T23:17:31.783Z,44.11
2022-10-08T23:19:59.615Z,44.06
2022-10-08T23:22:28.523Z,44.21
2022-10-08T23:24:56.379Z,44.12
2022-10-08T23:27:24.293Z,43.97
2022-10-08T23:29:52.175Z,44.13
2022-10-08T23:32:20.057Z,43.83
2022-10-08T23:34:47.857Z,43.80
2022-10-08T23:37:15.650Z,43.94
2022-10-08T23:39:43.537Z,43.89
2022-10-08T23:42:11.347Z,43.89
2022-10-08T23:44:39.161Z,43.93
2022-10-08T23:47:07.053Z,43.81
2022-10-08T23:49:34.838Z,44.33
2022-10-08T23:52:02.707Z,44.37
2022-10-08T23:54:30.525Z,44.21
2022-10-08T23:56:58.333Z,44.24
2022-10-08T23:59:26.172Z,44.13
